Hovedside
METAR-TAF:

METAR-TAF

Lufthavner :

Henri Coandă internasjonale lufthavn

Bucureşti, Romania

breddegrad: 44-33N, lengdegrad: 026-06E, høyde over havet: 95 m

Gjeldene værobservasjon

Denne rapporten ble laget for 20 minutter siden, klokken 17:30 UTC
Vind 5 kt fra Sørøst
Temperatur 19°C
Luftfuktighet 73%
Trykk 1015 hPa
Sikt 10 km eller mer
ingen skyer under 1500 m og ingen bygeskyer

METAR: LROP 231730Z 13005KT CAVOK 19/14 Q1015 NOSIG

Tid: 20:50 (17:50 UTC)

Varsel

Denne rapporten ble laget for 50 minutter siden, klokken 17:00 UTC
Varsel gyldig fra 23. klokken 18 UTC til 24. klokken 18 UTC
Vind 5 kt fra Øst-nordøst
Sikt 10 km eller mer
Spredte skyer i en høyde av 3000 ft
Midlertidig
fra 23. klokken 22 UTC til 24. klokken 04 UTC
Sikt: 3000 m
dis

TAF: LROP 231700Z 2318/2418 06005KT 9999 SCT030 TEMPO 2322/2404 3000 BR

Værobservasjoner og værvarsel for over 4000 flyplasser (METAR- og TAF-rapporter).

Tilgjengelige stasjoner er representert av de røde og gule prikkene på kartet.

Hold musepekeren over prikken for å se navnet på stasjonen.

Klikk så for å se værobservasjoner og -varsler.

For å forandre kartet kan du klikke på den grønne knappen med svart kryss for å zoome inn, på den grønne knappen med strek for å zoome ut, eller på de grønne pilene for å se tilstøtende kart.


METAR-TAF: